sensor_id;sensor_type;location;lat;lon;timestamp;pressure;altitude;pressure_sealevel;temperature;humidity
6514;BME280;3290;47.716;9.070;2024-02-14T00:00:53;97471.44;;;4.84;100.00
6514;BME280;3290;47.716;9.070;2024-02-14T00:03:18;97471.41;;;5.00;100.00
6514;BME280;3290;47.716;9.070;2024-02-14T00:05:45;97475.63;;;5.01;100.00
6514;BME280;3290;47.716;9.070;2024-02-14T00:08:11;97478.88;;;5.03;100.00
6514;BME280;3290;47.716;9.070;2024-02-14T00:10:39;97475.47;;;4.86;100.00
6514;BME280;3290;47.716;9.070;2024-02-14T00:13:04;97478.81;;;5.11;100.00
6514;BME280;3290;47.716;9.070;2024-02-14T00:15:30;97477.94;;;4.80;100.00
6514;BME280;3290;47.716;9.070;2024-02-14T00:17:55;97482.34;;;4.79;100.00
6514;BME280;3290;47.716;9.070;2024-02-14T00:20:21;97480.50;;;4.88;100.00
6514;BME280;3290;47.716;9.070;2024-02-14T00:22:47;97482.25;;;5.03;100.00
6514;BME280;3290;47.716;9.070;2024-02-14T00:25:12;97480.78;;;5.09;100.00
6514;BME280;3290;47.716;9.070;2024-02-14T00:27:37;97491.00;;;5.10;100.00
6514;BME280;3290;47.716;9.070;2024-02-14T00:30:04;97472.09;;;5.32;100.00
6514;BME280;3290;47.716;9.070;2024-02-14T00:32:29;97482.84;;;5.29;100.00
6514;BME280;3290;47.716;9.070;2024-02-14T00:34:55;97477.50;;;5.22;100.00
6514;BME280;3290;47.716;9.070;2024-02-14T00:37:20;97478.81;;;5.18;100.00
6514;BME280;3290;47.716;9.070;2024-02-14T00:39:45;97469.47;;;4.94;100.00
6514;BME280;3290;47.716;9.070;2024-02-14T00:42:13;97473.84;;;4.93;100.00
6514;BME280;3290;47.716;9.070;2024-02-14T00:44:39;97471.44;;;4.92;100.00
6514;BME280;3290;47.716;9.070;2024-02-14T00:47:04;97478.69;;;5.04;100.00
6514;BME280;3290;47.716;9.070;2024-02-14T00:49:29;97484.53;;;5.06;100.00
6514;BME280;3290;47.716;9.070;2024-02-14T00:51:55;97491.31;;;5.15;100.00
6514;BME280;3290;47.716;9.070;2024-02-14T00:54:21;97496.34;;;5.55;100.00
6514;BME280;3290;47.716;9.070;2024-02-14T00:56:46;97500.47;;;5.41;100.00
6514;BME280;3290;47.716;9.070;2024-02-14T00:59:12;97501.44;;;5.48;100.00
6514;BME280;3290;47.716;9.070;2024-02-14T01:01:38;97502.75;;;5.44;100.00
6514;BME280;3290;47.716;9.070;2024-02-14T01:04:03;97501.66;;;5.23;100.00
6514;BME280;3290;47.716;9.070;2024-02-14T01:06:30;97509.81;;;5.12;100.00
6514;BME280;3290;47.716;9.070;2024-02-14T01:08:55;97502.13;;;5.26;100.00
6514;BME280;3290;47.716;9.070;2024-02-14T01:11:21;97498.38;;;5.37;100.00
6514;BME280;3290;47.716;9.070;2024-02-14T01:13:46;97502.38;;;5.55;100.00
6514;BME280;3290;47.716;9.070;2024-02-14T01:16:12;97503.84;;;5.50;100.00
6514;BME280;3290;47.716;9.070;2024-02-14T01:18:37;97507.00;;;5.29;100.00
6514;BME280;3290;47.716;9.070;2024-02-14T01:21:03;97508.84;;;5.13;100.00
6514;BME280;3290;47.716;9.070;2024-02-14T01:23:28;97512.56;;;5.11;100.00
6514;BME280;3290;47.716;9.070;2024-02-14T01:25:53;97516.13;;;5.25;100.00
6514;BME280;3290;47.716;9.070;2024-02-14T01:28:21;97510.13;;;5.25;100.00
6514;BME280;3290;47.716;9.070;2024-02-14T01:30:47;97505.25;;;5.22;100.00
6514;BME280;3290;47.716;9.070;2024-02-14T01:33:12;97512.75;;;5.55;100.00
6514;BME280;3290;47.716;9.070;2024-02-14T01:35:38;97511.53;;;5.35;100.00
6514;BME280;3290;47.716;9.070;2024-02-14T01:38:04;97508.66;;;5.30;100.00
6514;BME280;3290;47.716;9.070;2024-02-14T01:40:30;97503.09;;;5.71;100.00
6514;BME280;3290;47.716;9.070;2024-02-14T01:42:55;97501.84;;;5.97;100.00
6514;BME280;3290;47.716;9.070;2024-02-14T01:45:21;97513.34;;;6.03;100.00
6514;BME280;3290;47.716;9.070;2024-02-14T01:47:48;97521.84;;;5.97;100.00
6514;BME280;3290;47.716;9.070;2024-02-14T01:50:14;97513.88;;;5.98;100.00
6514;BME280;3290;47.716;9.070;2024-02-14T01:52:39;97518.22;;;5.68;100.00
6514;BME280;3290;47.716;9.070;2024-02-14T01:55:07;97509.34;;;5.55;100.00
6514;BME280;3290;47.716;9.070;2024-02-14T01:57:33;97508.59;;;5.46;100.00
6514;BME280;3290;47.716;9.070;2024-02-14T02:00:02;97508.59;;;5.46;100.00
6514;BME280;3290;47.716;9.070;2024-02-14T02:02:34;97510.28;;;5.23;100.00
6514;BME280;3290;47.716;9.070;2024-02-14T02:05:02;97515.50;;;5.16;100.00
6514;BME280;3290;47.716;9.070;2024-02-14T02:07:27;97508.34;;;5.17;100.00
6514;BME280;3290;47.716;9.070;2024-02-14T02:09:52;97507.38;;;5.11;100.00
6514;BME280;3290;47.716;9.070;2024-02-14T02:12:18;97499.94;;;5.08;100.00
6514;BME280;3290;47.716;9.070;2024-02-14T02:14:44;97499.94;;;5.00;100.00
6514;BME280;3290;47.716;9.070;2024-02-14T02:17:09;97496.66;;;5.21;100.00
6514;BME280;3290;47.716;9.070;2024-02-14T02:19:39;97502.66;;;5.14;100.00
6514;BME280;3290;47.716;9.070;2024-02-14T02:22:04;97496.34;;;5.17;100.00
6514;BME280;3290;47.716;9.070;2024-02-14T02:24:30;97491.16;;;5.17;100.00
6514;BME280;3290;47.716;9.070;2024-02-14T02:26:55;97503.16;;;5.17;100.00
6514;BME280;3290;47.716;9.070;2024-02-14T02:29:22;97488.56;;;5.17;100.00
6514;BME280;3290;47.716;9.070;2024-02-14T02:31:47;97489.38;;;5.09;100.00
6514;BME280;3290;47.716;9.070;2024-02-14T02:34:12;97479.66;;;5.03;100.00
6514;BME280;3290;47.716;9.070;2024-02-14T02:36:38;97486.97;;;5.08;100.00
6514;BME280;3290;47.716;9.070;2024-02-14T02:39:04;97487.50;;;4.87;100.00
6514;BME280;3290;47.716;9.070;2024-02-14T02:41:30;97488.00;;;4.83;100.00
6514;BME280;3290;47.716;9.070;2024-02-14T02:43:57;97489.25;;;4.95;100.00
6514;BME280;3290;47.716;9.070;2024-02-14T02:46:22;97483.25;;;5.02;100.00
6514;BME280;3290;47.716;9.070;2024-02-14T02:48:48;97483.97;;;5.26;100.00
6514;BME280;3290;47.716;9.070;2024-02-14T02:51:16;97489.25;;;5.03;100.00
6514;BME280;3290;47.716;9.070;2024-02-14T02:53:41;97491.25;;;4.85;100.00
6514;BME280;3290;47.716;9.070;2024-02-14T02:56:07;97489.97;;;4.73;100.00
6514;BME280;3290;47.716;9.070;2024-02-14T02:58:32;97497.38;;;4.84;100.00
6514;BME280;3290;47.716;9.070;2024-02-14T03:00:58;97496.25;;;4.94;100.00
6514;BME280;3290;47.716;9.070;2024-02-14T03:03:24;97489.97;;;5.27;100.00
6514;BME280;3290;47.716;9.070;2024-02-14T03:05:52;97489.19;;;5.18;100.00
6514;BME280;3290;47.716;9.070;2024-02-14T03:08:20;97489.94;;;4.81;100.00
6514;BME280;3290;47.716;9.070;2024-02-14T03:10:46;97491.38;;;4.99;100.00
6514;BME280;3290;47.716;9.070;2024-02-14T03:13:12;97486.31;;;5.06;100.00
6514;BME280;3290;47.716;9.070;2024-02-14T03:15:38;97485.44;;;4.59;100.00
6514;BME280;3290;47.716;9.070;2024-02-14T03:18:03;97485.75;;;4.40;100.00
6514;BME280;3290;47.716;9.070;2024-02-14T03:20:33;97480.75;;;4.47;100.00
6514;BME280;3290;47.716;9.070;2024-02-14T03:22:58;97482.19;;;4.49;100.00
6514;BME280;3290;47.716;9.070;2024-02-14T03:25:24;97485.41;;;4.67;100.00
6514;BME280;3290;47.716;9.070;2024-02-14T03:27:49;97496.78;;;4.66;100.00
6514;BME280;3290;47.716;9.070;2024-02-14T03:30:18;97491.06;;;4.78;100.00
6514;BME280;3290;47.716;9.070;2024-02-14T03:32:44;97491.56;;;4.82;100.00
6514;BME280;3290;47.716;9.070;2024-02-14T03:35:10;97486.25;;;4.68;100.00
6514;BME280;3290;47.716;9.070;2024-02-14T03:37:37;97489.19;;;4.57;100.00
6514;BME280;3290;47.716;9.070;2024-02-14T03:40:04;97487.97;;;4.99;100.00
6514;BME280;3290;47.716;9.070;2024-02-14T03:42:30;97488.31;;;4.80;100.00
6514;BME280;3290;47.716;9.070;2024-02-14T03:44:55;97498.31;;;5.15;100.00
6514;BME280;3290;47.716;9.070;2024-02-14T03:47:28;97501.13;;;5.43;100.00
6514;BME280;3290;47.716;9.070;2024-02-14T03:49:54;97499.69;;;5.33;100.00
6514;BME280;3290;47.716;9.070;2024-02-14T03:52:19;97509.91;;;5.34;100.00
6514;BME280;3290;47.716;9.070;2024-02-14T03:54:46;97507.59;;;5.47;100.00
6514;BME280;3290;47.716;9.070;2024-02-14T03:57:11;97509.06;;;5.42;100.00
6514;BME280;3290;47.716;9.070;2024-02-14T03:59:38;97522.97;;;5.11;100.00
6514;BME280;3290;47.716;9.070;2024-02-14T04:02:06;97515.06;;;4.80;100.00
6514;BME280;3290;47.716;9.070;2024-02-14T04:04:37;97515.22;;;4.79;100.00
6514;BME280;3290;47.716;9.070;2024-02-14T04:07:04;97516.50;;;5.07;100.00
6514;BME280;3290;47.716;9.070;2024-02-14T04:09:30;97511.00;;;4.94;100.00
6514;BME280;3290;47.716;9.070;2024-02-14T04:11:57;97519.91;;;4.99;100.00
6514;BME280;3290;47.716;9.070;2024-02-14T04:14:22;97523.28;;;5.16;100.00
6514;BME280;3290;47.716;9.070;2024-02-14T04:16:48;97525.03;;;5.23;100.00
6514;BME280;3290;47.716;9.070;2024-02-14T04:19:13;97531.09;;;5.08;100.00
6514;BME280;3290;47.716;9.070;2024-02-14T04:21:42;97523.59;;;5.13;100.00
6514;BME280;3290;47.716;9.070;2024-02-14T04:24:08;97528.13;;;5.26;100.00
6514;BME280;3290;47.716;9.070;2024-02-14T04:26:33;97525.34;;;5.36;100.00
6514;BME280;3290;47.716;9.070;2024-02-14T04:29:00;97517.00;;;5.48;100.00
6514;BME280;3290;47.716;9.070;2024-02-14T04:31:29;97516.84;;;5.50;100.00
6514;BME280;3290;47.716;9.070;2024-02-14T04:33:56;97505.13;;;5.54;100.00
6514;BME280;3290;47.716;9.070;2024-02-14T04:36:22;97501.13;;;5.35;100.00
6514;BME280;3290;47.716;9.070;2024-02-14T04:38:48;97498.03;;;5.40;100.00
6514;BME280;3290;47.716;9.070;2024-02-14T04:41:14;97500.53;;;5.25;100.00
6514;BME280;3290;47.716;9.070;2024-02-14T04:43:40;97498.00;;;5.48;100.00
6514;BME280;3290;47.716;9.070;2024-02-14T04:46:05;97504.81;;;5.57;100.00
6514;BME280;3290;47.716;9.070;2024-02-14T04:48:35;97501.91;;;5.44;100.00
6514;BME280;3290;47.716;9.070;2024-02-14T04:51:03;97509.09;;;5.72;100.00
6514;BME280;3290;47.716;9.070;2024-02-14T04:53:30;97513.66;;;5.78;100.00
6514;BME280;3290;47.716;9.070;2024-02-14T04:55:55;97511.31;;;5.91;100.00
6514;BME280;3290;47.716;9.070;2024-02-14T04:58:21;97522.13;;;6.24;100.00
6514;BME280;3290;47.716;9.070;2024-02-14T05:00:46;97522.94;;;6.47;100.00
6514;BME280;3290;47.716;9.070;2024-02-14T05:03:11;97523.75;;;6.47;100.00
6514;BME280;3290;47.716;9.070;2024-02-14T05:05:37;97526.09;;;6.42;99.47
6514;BME280;3290;47.716;9.070;2024-02-14T05:08:03;97522.44;;;6.51;100.00
6514;BME280;3290;47.716;9.070;2024-02-14T05:10:28;97527.94;;;6.34;100.00
6514;BME280;3290;47.716;9.070;2024-02-14T05:12:54;97523.66;;;6.19;100.00
6514;BME280;3290;47.716;9.070;2024-02-14T05:15:20;97525.94;;;5.92;100.00
6514;BME280;3290;47.716;9.070;2024-02-14T05:17:45;97527.28;;;5.72;100.00
6514;BME280;3290;47.716;9.070;2024-02-14T05:20:11;97536.34;;;5.92;100.00
6514;BME280;3290;47.716;9.070;2024-02-14T05:22:37;97538.75;;;5.93;100.00
6514;BME280;3290;47.716;9.070;2024-02-14T05:25:03;97537.03;;;5.70;100.00
6514;BME280;3290;47.716;9.070;2024-02-14T05:27:30;97544.81;;;5.86;100.00
6514;BME280;3290;47.716;9.070;2024-02-14T05:29:55;97543.84;;;5.87;100.00
6514;BME280;3290;47.716;9.070;2024-02-14T05:32:21;97550.91;;;6.00;100.00
6514;BME280;3290;47.716;9.070;2024-02-14T05:34:46;97548.63;;;6.05;100.00
6514;BME280;3290;47.716;9.070;2024-02-14T05:37:12;97555.41;;;6.06;100.00
6514;BME280;3290;47.716;9.070;2024-02-14T05:39:38;97548.19;;;6.46;100.00
6514;BME280;3290;47.716;9.070;2024-02-14T05:42:04;97563.19;;;6.37;100.00
6514;BME280;3290;47.716;9.070;2024-02-14T05:44:30;97566.22;;;6.48;100.00
6514;BME280;3290;47.716;9.070;2024-02-14T05:46:56;97560.25;;;6.39;100.00
6514;BME280;3290;47.716;9.070;2024-02-14T05:49:22;97560.31;;;6.54;100.00
6514;BME280;3290;47.716;9.070;2024-02-14T05:51:47;97558.47;;;6.40;100.00
6514;BME280;3290;47.716;9.070;2024-02-14T05:54:12;97556.59;;;6.26;100.00
6514;BME280;3290;47.716;9.070;2024-02-14T05:56:38;97555.34;;;6.44;100.00
6514;BME280;3290;47.716;9.070;2024-02-14T05:59:03;97551.28;;;6.42;100.00
6514;BME280;3290;47.716;9.070;2024-02-14T06:01:29;97549.66;;;6.19;100.00
6514;BME280;3290;47.716;9.070;2024-02-14T06:03:55;97559.03;;;6.50;100.00
6514;BME280;3290;47.716;9.070;2024-02-14T06:06:20;97556.38;;;6.36;100.00
6514;BME280;3290;47.716;9.070;2024-02-14T06:08:46;97563.31;;;6.43;100.00
6514;BME280;3290;47.716;9.070;2024-02-14T06:11:11;97566.91;;;6.64;100.00
6514;BME280;3290;47.716;9.070;2024-02-14T06:13:39;97561.47;;;6.51;100.00
6514;BME280;3290;47.716;9.070;2024-02-14T06:16:05;97553.84;;;6.50;100.00
6514;BME280;3290;47.716;9.070;2024-02-14T06:18:30;97556.97;;;6.23;100.00
6514;BME280;3290;47.716;9.070;2024-02-14T06:20:56;97566.25;;;6.40;100.00
6514;BME280;3290;47.716;9.070;2024-02-14T06:23:21;97565.50;;;6.76;99.91
6514;BME280;3290;47.716;9.070;2024-02-14T06:25:46;97574.84;;;6.71;98.93
6514;BME280;3290;47.716;9.070;2024-02-14T06:28:12;97582.25;;;6.96;98.56
6514;BME280;3290;47.716;9.070;2024-02-14T06:30:37;97579.97;;;7.15;99.09
6514;BME280;3290;47.716;9.070;2024-02-14T06:33:03;97586.47;;;6.82;99.93
6514;BME280;3290;47.716;9.070;2024-02-14T06:35:29;97580.97;;;6.55;100.00
6514;BME280;3290;47.716;9.070;2024-02-14T06:37:55;97578.13;;;6.42;100.00
6514;BME280;3290;47.716;9.070;2024-02-14T06:40:21;97588.53;;;6.65;100.00
6514;BME280;3290;47.716;9.070;2024-02-14T06:42:47;97581.59;;;6.79;99.56
6514;BME280;3290;47.716;9.070;2024-02-14T06:45:15;97583.97;;;7.03;99.97
6514;BME280;3290;47.716;9.070;2024-02-14T06:47:41;97583.66;;;6.84;100.00
6514;BME280;3290;47.716;9.070;2024-02-14T06:50:07;97588.22;;;7.04;99.51
6514;BME280;3290;47.716;9.070;2024-02-14T06:52:33;97589.09;;;6.97;99.83
6514;BME280;3290;47.716;9.070;2024-02-14T06:54:58;97599.31;;;7.35;100.00
6514;BME280;3290;47.716;9.070;2024-02-14T06:57:25;97608.13;;;7.34;99.31
6514;BME280;3290;47.716;9.070;2024-02-14T06:59:51;97602.00;;;7.27;100.00
6514;BME280;3290;47.716;9.070;2024-02-14T07:02:16;97599.13;;;7.22;99.61
6514;BME280;3290;47.716;9.070;2024-02-14T07:04:42;97606.34;;;7.34;99.46
6514;BME280;3290;47.716;9.070;2024-02-14T07:07:07;97601.28;;;7.33;99.20
6514;BME280;3290;47.716;9.070;2024-02-14T07:09:33;97609.41;;;7.38;99.01
6514;BME280;3290;47.716;9.070;2024-02-14T07:12:01;97610.47;;;7.57;98.36
6514;BME280;3290;47.716;9.070;2024-02-14T07:14:26;97618.31;;;7.57;97.67
6514;BME280;3290;47.716;9.070;2024-02-14T07:16:52;97613.53;;;7.47;98.77
6514;BME280;3290;47.716;9.070;2024-02-14T07:19:17;97620.09;;;7.43;99.15
6514;BME280;3290;47.716;9.070;2024-02-14T07:21:43;97618.38;;;7.35;100.00
6514;BME280;3290;47.716;9.070;2024-02-14T07:24:09;97612.28;;;7.43;100.00
6514;BME280;3290;47.716;9.070;2024-02-14T07:26:35;97601.41;;;7.39;100.00
6514;BME280;3290;47.716;9.070;2024-02-14T07:29:00;97599.44;;;7.56;99.87
6514;BME280;3290;47.716;9.070;2024-02-14T07:31:29;97592.78;;;7.67;99.16
6514;BME280;3290;47.716;9.070;2024-02-14T07:33:56;97579.75;;;8.31;96.36
6514;BME280;3290;47.716;9.070;2024-02-14T07:36:21;97588.41;;;9.15;93.68
6514;BME280;3290;47.716;9.070;2024-02-14T07:38:46;97584.59;;;9.11;92.02
6514;BME280;3290;47.716;9.070;2024-02-14T07:41:12;97577.50;;;9.32;88.60
6514;BME280;3290;47.716;9.070;2024-02-14T07:43:38;97581.19;;;9.17;89.25
6514;BME280;3290;47.716;9.070;2024-02-14T07:46:03;97588.94;;;9.04;91.05
6514;BME280;3290;47.716;9.070;2024-02-14T07:48:31;97601.63;;;9.07;90.82
6514;BME280;3290;47.716;9.070;2024-02-14T07:50:56;97598.19;;;9.27;89.78
6514;BME280;3290;47.716;9.070;2024-02-14T07:53:23;97593.28;;;9.18;89.85
6514;BME280;3290;47.716;9.070;2024-02-14T07:55:49;97588.59;;;8.86;90.31
6514;BME280;3290;47.716;9.070;2024-02-14T07:58:14;97589.97;;;8.82;90.83
6514;BME280;3290;47.716;9.070;2024-02-14T08:00:40;97586.25;;;8.97;90.63
6514;BME280;3290;47.716;9.070;2024-02-14T08:03:05;97584.06;;;9.21;90.81
6514;BME280;3290;47.716;9.070;2024-02-14T08:05:31;97587.72;;;9.00;91.84
6514;BME280;3290;47.716;9.070;2024-02-14T08:07:56;97587.03;;;9.18;91.28
6514;BME280;3290;47.716;9.070;2024-02-14T08:10:22;97589.03;;;9.17;90.29
6514;BME280;3290;47.716;9.070;2024-02-14T08:12:47;97600.13;;;9.46;89.66
6514;BME280;3290;47.716;9.070;2024-02-14T08:15:12;97600.47;;;9.36;91.39
6514;BME280;3290;47.716;9.070;2024-02-14T08:17:38;97593.91;;;9.47;91.37
6514;BME280;3290;47.716;9.070;2024-02-14T08:20:04;97597.22;;;9.34;91.72
6514;BME280;3290;47.716;9.070;2024-02-14T08:22:29;97603.31;;;9.41;91.82
6514;BME280;3290;47.716;9.070;2024-02-14T08:24:55;97594.22;;;9.64;90.62
6514;BME280;3290;47.716;9.070;2024-02-14T08:27:21;97592.81;;;9.35;91.30
6514;BME280;3290;47.716;9.070;2024-02-14T08:29:47;97577.97;;;9.42;93.09
6514;BME280;3290;47.716;9.070;2024-02-14T08:32:12;97578.19;;;9.74;92.43
6514;BME280;3290;47.716;9.070;2024-02-14T08:34:38;97576.53;;;9.66;91.13
6514;BME280;3290;47.716;9.070;2024-02-14T08:37:03;97581.63;;;10.14;88.19
6514;BME280;3290;47.716;9.070;2024-02-14T08:39:29;97581.63;;;10.08;87.50
6514;BME280;3290;47.716;9.070;2024-02-14T08:41:54;97580.06;;;10.26;85.63
6514;BME280;3290;47.716;9.070;2024-02-14T08:44:19;97591.91;;;10.88;85.29
6514;BME280;3290;47.716;9.070;2024-02-14T08:46:45;97592.31;;;11.68;82.06
6514;BME280;3290;47.716;9.070;2024-02-14T08:49:13;97593.91;;;10.79;81.98
6514;BME280;3290;47.716;9.070;2024-02-14T08:51:39;97596.91;;;10.04;85.02
6514;BME280;3290;47.716;9.070;2024-02-14T08:54:04;97602.22;;;10.30;86.72
6514;BME280;3290;47.716;9.070;2024-02-14T08:56:34;97618.16;;;11.01;82.10
6514;BME280;3290;47.716;9.070;2024-02-14T08:59:03;97615.28;;;10.83;82.92
6514;BME280;3290;47.716;9.070;2024-02-14T09:01:30;97611.59;;;10.52;82.00
6514;BME280;3290;47.716;9.070;2024-02-14T09:03:55;97612.09;;;10.94;83.27
6514;BME280;3290;47.716;9.070;2024-02-14T09:06:21;97615.72;;;10.93;82.98
6514;BME280;3290;47.716;9.070;2024-02-14T09:08:47;97612.50;;;10.97;83.08
6514;BME280;3290;47.716;9.070;2024-02-14T09:11:12;97615.13;;;11.23;82.23
6514;BME280;3290;47.716;9.070;2024-02-14T09:13:38;97608.81;;;10.73;84.62
6514;BME280;3290;47.716;9.070;2024-02-14T09:16:06;97617.97;;;11.28;83.41
6514;BME280;3290;47.716;9.070;2024-02-14T09:18:31;97622.19;;;11.03;82.12
6514;BME280;3290;47.716;9.070;2024-02-14T09:20:57;97610.06;;;10.89;83.42
6514;BME280;3290;47.716;9.070;2024-02-14T09:23:23;97607.72;;;11.59;81.29
6514;BME280;3290;47.716;9.070;2024-02-14T09:25:49;97603.66;;;11.56;81.88
6514;BME280;3290;47.716;9.070;2024-02-14T09:28:18;97605.97;;;12.09;79.37
6514;BME280;3290;47.716;9.070;2024-02-14T09:30:43;97603.25;;;11.20;79.77
6514;BME280;3290;47.716;9.070;2024-02-14T09:33:10;97604.84;;;11.41;80.90
6514;BME280;3290;47.716;9.070;2024-02-14T09:35:35;97610.91;;;11.22;80.01
6514;BME280;3290;47.716;9.070;2024-02-14T09:38:03;97615.34;;;11.28;81.23
6514;BME280;3290;47.716;9.070;2024-02-14T09:40:28;97616.50;;;10.80;81.11
6514;BME280;3290;47.716;9.070;2024-02-14T09:42:55;97619.13;;;10.80;81.79
6514;BME280;3290;47.716;9.070;2024-02-14T09:45:27;97623.84;;;11.49;80.17
6514;BME280;3290;47.716;9.070;2024-02-14T09:47:53;97620.09;;;10.79;80.80
6514;BME280;3290;47.716;9.070;2024-02-14T09:50:20;97622.00;;;11.05;80.89
6514;BME280;3290;47.716;9.070;2024-02-14T09:52:48;97624.84;;;11.29;79.10
6514;BME280;3290;47.716;9.070;2024-02-14T09:55:15;97622.59;;;11.19;78.89
6514;BME280;3290;47.716;9.070;2024-02-14T09:57:41;97623.00;;;11.23;77.30
6514;BME280;3290;47.716;9.070;2024-02-14T10:00:10;97613.88;;;11.96;75.90
6514;BME280;3290;47.716;9.070;2024-02-14T10:02:35;97601.09;;;12.19;72.57
6514;BME280;3290;47.716;9.070;2024-02-14T10:05:01;97609.31;;;11.59;72.83
6514;BME280;3290;47.716;9.070;2024-02-14T10:07:26;97602.72;;;12.20;72.13
6514;BME280;3290;47.716;9.070;2024-02-14T10:09:53;97600.78;;;12.46;70.32
6514;BME280;3290;47.716;9.070;2024-02-14T10:12:19;97612.94;;;11.78;73.56
6514;BME280;3290;47.716;9.070;2024-02-14T10:14:44;97609.47;;;11.77;73.56
6514;BME280;3290;47.716;9.070;2024-02-14T10:17:18;97609.91;;;11.68;72.57
6514;BME280;3290;47.716;9.070;2024-02-14T10:19:57;97606.22;;;10.79;73.66
6514;BME280;3290;47.716;9.070;2024-02-14T10:22:23;97609.91;;;11.36;73.38
6514;BME280;3290;47.716;9.070;2024-02-14T10:24:50;97604.09;;;12.22;70.96
6514;BME280;3290;47.716;9.070;2024-02-14T10:27:15;97602.19;;;12.79;69.48
6514;BME280;3290;47.716;9.070;2024-02-14T10:29:40;97602.28;;;12.23;68.62
6514;BME280;3290;47.716;9.070;2024-02-14T10:32:07;97592.72;;;12.41;69.45
6514;BME280;3290;47.716;9.070;2024-02-14T10:34:33;97592.94;;;12.83;67.88
6514;BME280;3290;47.716;9.070;2024-02-14T10:37:00;97595.13;;;13.65;65.26
6514;BME280;3290;47.716;9.070;2024-02-14T10:39:26;97606.25;;;13.43;64.58
6514;BME280;3290;47.716;9.070;2024-02-14T10:41:52;97618.28;;;13.81;62.12
6514;BME280;3290;47.716;9.070;2024-02-14T10:44:17;97601.88;;;14.68;58.18
6514;BME280;3290;47.716;9.070;2024-02-14T10:46:44;97602.88;;;14.02;58.58
6514;BME280;3290;47.716;9.070;2024-02-14T10:49:11;97601.91;;;14.32;57.56
6514;BME280;3290;47.716;9.070;2024-02-14T10:51:38;97596.50;;;15.03;55.40
6514;BME280;3290;47.716;9.070;2024-02-14T10:54:11;97602.88;;;14.96;55.72
6514;BME280;3290;47.716;9.070;2024-02-14T10:56:42;97601.16;;;15.19;54.46
6514;BME280;3290;47.716;9.070;2024-02-14T10:59:09;97599.38;;;14.73;56.14
6514;BME280;3290;47.716;9.070;2024-02-14T11:01:37;97595.72;;;14.74;55.93
6514;BME280;3290;47.716;9.070;2024-02-14T11:04:03;97591.19;;;14.16;60.14
6514;BME280;3290;47.716;9.070;2024-02-14T11:06:30;97590.41;;;13.49;61.67
6514;BME280;3290;47.716;9.070;2024-02-14T11:09:03;97590.53;;;13.54;60.28
6514;BME280;3290;47.716;9.070;2024-02-14T11:11:33;97600.81;;;13.14;64.83
6514;BME280;3290;47.716;9.070;2024-02-14T11:13:58;97594.84;;;13.24;63.47
6514;BME280;3290;47.716;9.070;2024-02-14T11:16:28;97583.63;;;13.11;60.54
6514;BME280;3290;47.716;9.070;2024-02-14T11:19:07;97586.22;;;14.01;58.05
6514;BME280;3290;47.716;9.070;2024-02-14T11:21:40;97588.09;;;13.11;62.67
6514;BME280;3290;47.716;9.070;2024-02-14T11:24:10;97586.28;;;14.19;60.01
6514;BME280;3290;47.716;9.070;2024-02-14T11:26:40;97587.53;;;13.51;59.62
6514;BME280;3290;47.716;9.070;2024-02-14T11:29:14;97579.44;;;14.12;56.98
6514;BME280;3290;47.716;9.070;2024-02-14T11:31:39;97574.84;;;14.72;55.47
6514;BME280;3290;47.716;9.070;2024-02-14T11:34:05;97574.22;;;15.62;51.92
6514;BME280;3290;47.716;9.070;2024-02-14T11:36:33;97577.69;;;15.11;52.88
6514;BME280;3290;47.716;9.070;2024-02-14T11:39:04;97575.13;;;14.64;52.75
6514;BME280;3290;47.716;9.070;2024-02-14T11:41:33;97581.31;;;14.58;53.89
6514;BME280;3290;47.716;9.070;2024-02-14T11:44:03;97580.09;;;15.42;53.62
6514;BME280;3290;47.716;9.070;2024-02-14T11:46:34;97561.66;;;16.65;48.16
6514;BME280;3290;47.716;9.070;2024-02-14T11:49:01;97564.41;;;16.31;47.95
6514;BME280;3290;47.716;9.070;2024-02-14T11:51:33;97568.94;;;15.62;49.98
6514;BME280;3290;47.716;9.070;2024-02-14T11:53:59;97563.69;;;16.36;46.55
6514;BME280;3290;47.716;9.070;2024-02-14T11:56:33;97566.56;;;16.45;45.97
6514;BME280;3290;47.716;9.070;2024-02-14T11:59:03;97567.84;;;16.32;47.83
6514;BME280;3290;47.716;9.070;2024-02-14T12:01:30;97564.09;;;16.28;49.19
6514;BME280;3290;47.716;9.070;2024-02-14T12:04:00;97562.22;;;16.67;46.41
6514;BME280;3290;47.716;9.070;2024-02-14T12:06:29;97559.66;;;16.72;44.61
6514;BME280;3290;47.716;9.070;2024-02-14T12:09:00;97570.88;;;17.07;44.59
6514;BME280;3290;47.716;9.070;2024-02-14T12:11:36;97569.91;;;17.13;44.24
6514;BME280;3290;47.716;9.070;2024-02-14T12:14:06;97569.16;;;16.29;46.28
6514;BME280;3290;47.716;9.070;2024-02-14T12:16:36;97566.06;;;16.76;45.22
6514;BME280;3290;47.716;9.070;2024-02-14T12:19:07;97565.72;;;15.83;47.49
6514;BME280;3290;47.716;9.070;2024-02-14T12:21:36;97566.84;;;16.60;47.31
6514;BME280;3290;47.716;9.070;2024-02-14T12:24:06;97562.75;;;16.97;45.39
6514;BME280;3290;47.716;9.070;2024-02-14T12:26:32;97563.34;;;16.43;46.83
6514;BME280;3290;47.716;9.070;2024-02-14T12:29:01;97554.41;;;16.88;45.61
6514;BME280;3290;47.716;9.070;2024-02-14T12:31:28;97554.16;;;17.18;44.53
6514;BME280;3290;47.716;9.070;2024-02-14T12:33:56;97559.88;;;16.98;45.07
6514;BME280;3290;47.716;9.070;2024-02-14T12:36:24;97543.22;;;18.38;41.96
6514;BME280;3290;47.716;9.070;2024-02-14T12:38:49;97549.06;;;17.81;44.28
6514;BME280;3290;47.716;9.070;2024-02-14T12:41:17;97549.75;;;18.09;44.83
6514;BME280;3290;47.716;9.070;2024-02-14T12:43:42;97546.16;;;18.63;42.44
6514;BME280;3290;47.716;9.070;2024-02-14T12:46:07;97532.28;;;18.82;41.89
6514;BME280;3290;47.716;9.070;2024-02-14T12:48:33;97534.13;;;16.94;45.83
6514;BME280;3290;47.716;9.070;2024-02-14T12:50:58;97540.38;;;17.86;44.39
6514;BME280;3290;47.716;9.070;2024-02-14T12:53:24;97539.19;;;17.77;44.68
6514;BME280;3290;47.716;9.070;2024-02-14T12:55:49;97535.88;;;17.86;45.53
6514;BME280;3290;47.716;9.070;2024-02-14T12:58:15;97534.22;;;18.02;45.20
6514;BME280;3290;47.716;9.070;2024-02-14T13:00:41;97536.31;;;18.63;44.14
6514;BME280;3290;47.716;9.070;2024-02-14T13:03:08;97535.53;;;18.63;44.61
6514;BME280;3290;47.716;9.070;2024-02-14T13:05:36;97537.03;;;17.74;46.82
6514;BME280;3290;47.716;9.070;2024-02-14T13:08:02;97536.09;;;17.85;48.09
6514;BME280;3290;47.716;9.070;2024-02-14T13:10:27;97536.69;;;17.05;50.01
6514;BME280;3290;47.716;9.070;2024-02-14T13:12:52;97538.88;;;17.08;49.63
6514;BME280;3290;47.716;9.070;2024-02-14T13:15:18;97528.09;;;16.54;51.10
6514;BME280;3290;47.716;9.070;2024-02-14T13:17:43;97531.41;;;16.34;52.74